createdAt,value
2023-02-09T00:01:36.804Z,42.85
2023-02-09T00:04:07.632Z,42.67
2023-02-09T00:06:38.291Z,44.08
2023-02-09T00:09:09.034Z,46.13
2023-02-09T00:11:57.386Z,46.45
2023-02-09T00:14:28.908Z,47.67
2023-02-09T00:16:59.829Z,45.63
2023-02-09T00:19:33.196Z,44.90
2023-02-09T00:22:03.406Z,44.13
2023-02-09T00:24:34.252Z,46.33
2023-02-09T00:27:04.871Z,45.48
2023-02-09T00:29:35.995Z,45.08
2023-02-09T00:32:07.198Z,44.30
2023-02-09T00:34:39.849Z,44.93
2023-02-09T00:37:10.637Z,43.42
2023-02-09T00:39:41.286Z,44.70
2023-02-09T00:42:13.138Z,46.18
2023-02-09T00:44:43.906Z,45.23
2023-02-09T00:47:14.599Z,45.43
2023-02-09T00:49:45.380Z,43.52
2023-02-09T00:52:20.108Z,47.05
2023-02-09T00:54:50.931Z,47.40
2023-02-09T00:57:21.570Z,48.08
2023-02-09T00:59:52.614Z,47.10
2023-02-09T01:02:23.398Z,47.78
2023-02-09T01:04:54.860Z,48.80
2023-02-09T01:07:26.683Z,49.35
2023-02-09T01:09:57.394Z,49.67
2023-02-09T01:12:28.576Z,49.13
2023-02-09T01:14:59.774Z,50.92
2023-02-09T01:17:31.409Z,51.45
2023-02-09T01:20:03.058Z,48.05
2023-02-09T01:22:33.868Z,50.35
2023-02-09T01:25:04.992Z,49.60
2023-02-09T01:27:36.713Z,45.52
2023-02-09T01:30:08.796Z,49.38
2023-02-09T01:32:50.532Z,45.73
2023-02-09T01:35:21.355Z,44.45
2023-02-09T01:38:00.562Z,44.03
2023-02-09T01:40:32.055Z,44.45
2023-02-09T01:43:05.301Z,42.90
2023-02-09T01:45:49.422Z,43.92
2023-02-09T01:48:22.573Z,41.60
2023-02-09T01:50:56.124Z,39.90
2023-02-09T01:53:28.524Z,39.25
2023-02-09T01:56:03.273Z,38.40
2023-02-09T01:58:35.220Z,35.95
2023-02-09T02:01:13.530Z,43.38
2023-02-09T02:03:45.264Z,35.58
2023-02-09T02:06:18.988Z,31.62
2023-02-09T02:09:01.884Z,30.20
2023-02-09T02:11:34.458Z,31.93
2023-02-09T02:14:05.789Z,29.50
2023-02-09T02:16:55.242Z,28.90
2023-02-09T02:19:40.515Z,27.93
2023-02-09T02:22:29.584Z,29.35
2023-02-09T02:25:09.701Z,27.62
2023-02-09T02:27:59.628Z,30.27
2023-02-09T02:30:39.019Z,29.15
2023-02-09T02:33:47.729Z,28.42
2023-02-09T02:36:21.091Z,28.10
2023-02-09T02:39:14.265Z,27.45
2023-02-09T02:42:08.269Z,26.85
2023-02-09T02:44:41.811Z,25.70
2023-02-09T02:47:15.996Z,24.35
2023-02-09T02:49:54.960Z,24.27
2023-02-09T02:52:26.170Z,24.40
2023-02-09T02:55:05.336Z,23.10
2023-02-09T02:57:38.473Z,23.07
2023-02-09T03:00:14.890Z,22.45
2023-02-09T03:02:54.653Z,20.95
2023-02-09T03:05:28.291Z,20.45
2023-02-09T03:07:59.044Z,20.10
2023-02-09T03:10:38.866Z,21.60
2023-02-09T03:13:21.131Z,23.87
2023-02-09T03:16:23.565Z,21.60
2023-02-09T03:19:12.532Z,22.40
2023-02-09T03:21:46.435Z,20.97
2023-02-09T03:24:36.461Z,20.43
2023-02-09T03:27:18.835Z,21.45
2023-02-09T03:29:52.805Z,26.93
2023-02-09T03:32:25.309Z,21.97
2023-02-09T03:34:57.812Z,21.75
2023-02-09T03:37:29.122Z,22.30
2023-02-09T03:40:00.361Z,22.77
2023-02-09T03:42:31.745Z,22.25
2023-02-09T03:45:02.773Z,21.97
2023-02-09T03:47:33.497Z,22.98
2023-02-09T03:50:04.900Z,22.93
2023-02-09T03:52:36.363Z,22.17
2023-02-09T03:55:08.840Z,22.45
2023-02-09T03:57:41.479Z,21.57
2023-02-09T04:00:14.061Z,21.02
2023-02-09T04:02:45.677Z,19.25
2023-02-09T04:05:36.804Z,21.17
2023-02-09T04:08:08.201Z,19.80
2023-02-09T04:10:39.647Z,17.52
2023-02-09T04:13:10.535Z,20.50
2023-02-09T04:15:41.915Z,18.23
2023-02-09T04:18:12.875Z,19.95
2023-02-09T04:20:44.817Z,17.77
2023-02-09T04:23:16.486Z,23.32
2023-02-09T04:25:47.217Z,20.23
2023-02-09T04:28:17.993Z,20.97
2023-02-09T04:30:49.979Z,22.32
2023-02-09T04:33:20.664Z,20.23
2023-02-09T04:35:51.327Z,22.50
2023-02-09T04:38:25.512Z,21.05
2023-02-09T04:40:59.486Z,23.10
2023-02-09T04:43:37.178Z,22.48
2023-02-09T04:46:08.819Z,22.98
2023-02-09T04:48:41.521Z,22.77
2023-02-09T04:51:13.599Z,23.15
2023-02-09T04:53:44.344Z,23.00
2023-02-09T04:56:19.168Z,24.25
2023-02-09T04:59:07.785Z,23.32
2023-02-09T05:01:39.339Z,21.80
2023-02-09T05:04:10.564Z,22.65
2023-02-09T05:06:41.923Z,22.35
2023-02-09T05:09:13.600Z,20.75
2023-02-09T05:11:44.290Z,21.02
2023-02-09T05:14:21.502Z,19.48
2023-02-09T05:16:52.230Z,20.72
2023-02-09T05:19:23.949Z,20.48
2023-02-09T05:21:55.301Z,20.68
2023-02-09T05:24:26.155Z,19.40
2023-02-09T05:26:57.215Z,18.73
2023-02-09T05:29:28.700Z,19.40
2023-02-09T05:32:00.532Z,19.90
2023-02-09T05:34:32.136Z,18.48
2023-02-09T05:37:07.066Z,18.17
2023-02-09T05:39:39.064Z,19.37
2023-02-09T05:42:18.671Z,19.60
2023-02-09T05:44:55.861Z,18.73
2023-02-09T05:47:27.631Z,19.77
2023-02-09T05:49:59.029Z,20.00
2023-02-09T05:52:30.728Z,20.40
2023-02-09T05:55:02.260Z,21.75
2023-02-09T05:57:33.794Z,20.70
2023-02-09T06:00:05.900Z,21.25
2023-02-09T06:02:37.662Z,20.30
2023-02-09T06:05:09.492Z,21.82
2023-02-09T06:07:41.151Z,23.38
2023-02-09T06:10:12.395Z,20.50
2023-02-09T06:12:43.242Z,20.92
2023-02-09T06:15:14.624Z,20.75
2023-02-09T06:17:45.612Z,22.62
2023-02-09T06:20:16.314Z,23.73
2023-02-09T06:22:47.713Z,22.37
2023-02-09T06:25:19.237Z,23.20
2023-02-09T06:27:50.990Z,20.48
2023-02-09T06:30:22.429Z,21.75
2023-02-09T06:32:53.113Z,20.90
2023-02-09T06:35:23.853Z,20.05
2023-02-09T06:37:56.175Z,21.17
2023-02-09T06:40:27.509Z,21.82
2023-02-09T06:42:58.555Z,20.52
2023-02-09T06:45:29.445Z,19.98
2023-02-09T06:48:00.779Z,19.25
2023-02-09T06:50:31.879Z,19.50
2023-02-09T06:53:06.755Z,20.60
2023-02-09T06:55:39.294Z,21.02
2023-02-09T07:01:02.013Z,19.87
2023-02-09T07:03:35.958Z,20.95
2023-02-09T07:06:12.120Z,19.70
2023-02-09T07:08:49.752Z,20.45
2023-02-09T07:11:21.533Z,20.12
2023-02-09T07:13:52.210Z,20.48
2023-02-09T07:16:23.213Z,20.20
2023-02-09T07:18:53.976Z,20.92
2023-02-09T07:21:25.599Z,19.82
2023-02-09T07:23:57.654Z,20.17
2023-02-09T07:26:29.818Z,20.40
2023-02-09T07:29:00.970Z,18.95
2023-02-09T07:31:34.514Z,20.25
2023-02-09T07:34:05.594Z,20.20
2023-02-09T07:36:36.489Z,20.75
2023-02-09T07:39:08.932Z,20.82
2023-02-09T07:41:40.064Z,20.95
2023-02-09T07:44:11.890Z,20.37
2023-02-09T07:46:42.890Z,21.12
2023-02-09T07:49:16.472Z,20.95
2023-02-09T07:51:47.317Z,19.70
2023-02-09T07:54:18.423Z,20.40
2023-02-09T07:56:49.145Z,20.10
2023-02-09T07:59:20.082Z,19.85
2023-02-09T08:01:50.907Z,20.20
2023-02-09T08:04:31.507Z,19.98
2023-02-09T08:07:03.587Z,20.20
2023-02-09T08:09:41.008Z,18.92
2023-02-09T08:12:10.703Z,19.70
2023-02-09T08:14:48.891Z,20.68
2023-02-09T08:17:25.102Z,20.40
2023-02-09T08:19:58.685Z,20.75
2023-02-09T08:22:32.461Z,18.50
2023-02-09T08:25:05.787Z,19.50
2023-02-09T08:27:47.435Z,19.12
2023-02-09T08:30:20.755Z,20.00
2023-02-09T08:32:51.515Z,19.45
2023-02-09T08:35:24.952Z,19.27
2023-02-09T08:37:57.451Z,18.75
2023-02-09T08:40:28.959Z,19.82
2023-02-09T08:43:00.148Z,19.57
2023-02-09T08:45:31.501Z,19.60
2023-02-09T08:48:02.597Z,19.95
2023-02-09T08:50:35.372Z,18.37
2023-02-09T08:53:07.780Z,18.23
2023-02-09T08:55:40.353Z,17.95
2023-02-09T08:58:11.044Z,18.17
2023-02-09T09:00:44.747Z,17.82
2023-02-09T09:03:15.691Z,18.15
2023-02-09T09:05:48.035Z,17.37
2023-02-09T09:08:21.148Z,17.77
2023-02-09T09:10:55.166Z,17.77
2023-02-09T09:13:26.562Z,17.12
2023-02-09T09:15:58.025Z,18.75
2023-02-09T09:18:29.448Z,17.85
2023-02-09T09:21:02.821Z,18.05
2023-02-09T09:23:33.557Z,17.50
2023-02-09T09:26:07.632Z,17.87
2023-02-09T09:28:44.294Z,17.30
2023-02-09T09:31:16.940Z,18.32
2023-02-09T09:39:31.714Z,18.40
2023-02-09T09:42:03.571Z,17.20
2023-02-09T09:44:42.561Z,18.00
2023-02-09T09:47:22.319Z,18.45
2023-02-09T09:49:53.113Z,18.87
2023-02-09T09:52:26.585Z,16.70
2023-02-09T09:54:58.004Z,18.90
2023-02-09T09:57:34.069Z,16.65
2023-02-09T10:00:07.051Z,17.60
2023-02-09T10:02:40.641Z,17.55
2023-02-09T10:05:25.756Z,19.10
2023-02-09T10:08:09.351Z,18.80
2023-02-09T10:10:49.635Z,19.15
2023-02-09T10:13:31.916Z,17.30
2023-02-09T10:16:03.409Z,18.67
2023-02-09T10:18:36.692Z,18.35
2023-02-09T10:21:12.980Z,18.27
2023-02-09T10:26:23.168Z,18.25
2023-02-09T10:29:02.869Z,18.12
2023-02-09T10:31:36.320Z,20.12
2023-02-09T10:34:12.708Z,18.73
2023-02-09T10:36:51.711Z,22.65
2023-02-09T10:39:36.697Z,18.62
2023-02-09T10:42:28.630Z,19.00
2023-02-09T10:45:01.586Z,19.67
2023-02-09T10:47:33.688Z,19.55
2023-02-09T10:50:19.191Z,22.10
2023-02-09T10:53:16.719Z,21.57
2023-02-09T10:55:48.534Z,20.48
2023-02-09T10:58:33.938Z,20.95
2023-02-09T11:01:09.725Z,22.60
2023-02-09T11:03:42.277Z,21.33
2023-02-09T11:06:22.705Z,19.50
2023-02-09T11:08:55.952Z,20.45
2023-02-09T11:11:35.046Z,21.52
2023-02-09T11:14:06.329Z,21.65
2023-02-09T11:16:58.002Z,20.15
2023-02-09T11:19:57.170Z,19.75
2023-02-09T11:22:39.616Z,21.82
2023-02-09T11:25:34.643Z,21.60
2023-02-09T11:28:13.244Z,21.87
2023-02-09T11:31:02.057Z,21.33
2023-02-09T11:33:56.844Z,23.30
2023-02-09T11:36:32.979Z,21.82
2023-02-09T11:39:17.873Z,21.20
2023-02-09T11:42:09.002Z,21.77
2023-02-09T11:45:09.271Z,22.25
2023-02-09T11:47:51.256Z,22.00
2023-02-09T11:50:30.222Z,23.27
2023-02-09T11:53:03.397Z,23.50
2023-02-09T11:55:51.394Z,24.18
2023-02-09T11:58:27.178Z,23.83
2023-02-09T12:01:15.565Z,24.23
2023-02-09T12:03:44.748Z,23.95
2023-02-09T12:06:20.233Z,25.50
2023-02-09T12:08:59.605Z,25.70
2023-02-09T12:11:46.585Z,26.73
2023-02-09T12:14:32.276Z,26.77
2023-02-09T12:17:11.222Z,27.37
2023-02-09T12:19:45.515Z,26.42
2023-02-09T12:22:38.886Z,26.10
2023-02-09T12:25:17.691Z,26.90
2023-02-09T12:30:53.194Z,24.82
2023-02-09T12:33:30.058Z,26.48
2023-02-09T12:36:12.152Z,26.15
2023-02-09T12:39:04.682Z,27.60
2023-02-09T12:41:41.272Z,27.05
2023-02-09T12:44:21.051Z,26.30
2023-02-09T12:46:55.846Z,26.90
2023-02-09T12:49:34.939Z,28.85
2023-02-09T12:52:10.094Z,28.38
2023-02-09T12:54:46.408Z,27.15
2023-02-09T12:57:23.477Z,26.37
2023-02-09T12:59:57.585Z,27.00
2023-02-09T13:02:51.980Z,26.75
2023-02-09T13:05:40.056Z,26.57
2023-02-09T13:08:19.048Z,26.55
2023-02-09T13:11:00.112Z,25.68
2023-02-09T13:13:51.934Z,24.32
2023-02-09T13:16:28.049Z,26.15
2023-02-09T13:19:04.104Z,26.93
2023-02-09T13:22:01.515Z,26.57
2023-02-09T13:24:52.673Z,26.52
2023-02-09T13:27:26.055Z,27.17
2023-02-09T13:29:59.805Z,27.07
2023-02-09T13:32:39.320Z,27.32
2023-02-09T13:35:19.461Z,26.48
2023-02-09T13:37:58.660Z,25.57
2023-02-09T13:40:34.897Z,25.85
2023-02-09T13:43:08.162Z,25.97
2023-02-09T13:45:40.614Z,25.17
2023-02-09T13:48:16.254Z,25.80
2023-02-09T13:50:52.401Z,26.37
2023-02-09T13:53:27.634Z,25.72
2023-02-09T13:56:02.548Z,28.20
2023-02-09T13:58:37.135Z,25.92
2023-02-09T14:01:16.671Z,25.65
2023-02-09T14:03:58.537Z,27.10
2023-02-09T14:06:39.797Z,29.95
2023-02-09T14:09:15.587Z,26.12
2023-02-09T14:11:48.956Z,28.27
2023-02-09T14:17:40.551Z,29.52
2023-02-09T14:20:29.846Z,27.90
2023-02-09T14:23:03.453Z,28.30
2023-02-09T14:25:36.756Z,28.32
2023-02-09T14:28:07.830Z,31.07
2023-02-09T14:30:40.678Z,32.78
2023-02-09T14:33:24.367Z,32.28
2023-02-09T14:36:00.721Z,31.40
2023-02-09T14:38:43.997Z,32.00
2023-02-09T14:41:35.955Z,31.97
2023-02-09T14:44:11.909Z,32.67
2023-02-09T14:47:00.882Z,32.38
2023-02-09T14:49:32.956Z,32.95
2023-02-09T14:52:09.678Z,33.58
2023-02-09T14:54:52.052Z,36.10
2023-02-09T14:57:24.824Z,34.00
2023-02-09T14:59:55.964Z,33.70
2023-02-09T15:02:33.267Z,34.80
2023-02-09T15:05:10.653Z,34.18
2023-02-09T15:10:19.860Z,33.30
2023-02-09T15:12:51.318Z,33.45
2023-02-09T15:15:23.849Z,33.65
2023-02-09T15:17:58.398Z,32.00
2023-02-09T15:20:30.579Z,32.98
2023-02-09T15:23:01.994Z,31.17
2023-02-09T15:25:38.114Z,31.48
2023-02-09T15:28:11.361Z,30.25
2023-02-09T15:30:44.901Z,30.55
2023-02-09T15:33:15.925Z,29.45
2023-02-09T15:35:46.947Z,29.18
2023-02-09T15:38:19.542Z,30.52
2023-02-09T15:41:09.733Z,30.60
2023-02-09T15:43:58.052Z,32.40
2023-02-09T15:46:46.360Z,30.15
2023-02-09T15:49:19.818Z,29.65
2023-02-09T15:51:50.811Z,29.48
2023-02-09T15:54:24.077Z,27.70
2023-02-09T15:56:56.325Z,26.55
2023-02-09T15:59:28.334Z,29.63
2023-02-09T16:02:00.596Z,30.90
2023-02-09T16:04:33.215Z,31.17
2023-02-09T16:07:04.903Z,32.13
2023-02-09T16:09:36.844Z,32.75
2023-02-09T16:12:10.582Z,31.73
2023-02-09T16:14:41.494Z,32.23
2023-02-09T16:17:12.303Z,31.50
2023-02-09T16:19:43.092Z,30.95
2023-02-09T16:22:16.040Z,31.33
2023-02-09T16:24:52.627Z,31.50
2023-02-09T16:27:29.700Z,30.75
2023-02-09T16:30:01.716Z,31.47
2023-02-09T16:32:32.520Z,32.67
2023-02-09T16:35:15.823Z,31.75
2023-02-09T16:37:35.458Z,32.85
2023-02-09T16:40:08.853Z,33.63
2023-02-09T16:42:39.577Z,32.00
2023-02-09T16:45:12.996Z,35.03
2023-02-09T16:47:47.437Z,34.58
2023-02-09T16:50:37.687Z,35.60
2023-02-09T16:53:19.064Z,36.42
2023-02-09T16:55:57.585Z,34.90
2023-02-09T16:58:27.992Z,35.98
2023-02-09T17:01:02.328Z,33.70
2023-02-09T17:03:39.128Z,37.85
2023-02-09T17:09:05.853Z,35.90
2023-02-09T17:11:39.534Z,34.58
2023-02-09T17:14:12.454Z,34.18
2023-02-09T17:16:46.916Z,34.70
2023-02-09T17:19:20.721Z,35.40
2023-02-09T17:22:00.000Z,34.55
2023-02-09T17:24:30.831Z,33.23
2023-02-09T17:27:01.572Z,34.80
2023-02-09T17:29:33.638Z,34.05
2023-02-09T17:32:08.996Z,32.17
2023-02-09T17:34:54.339Z,33.40
2023-02-09T17:37:32.281Z,33.95
2023-02-09T17:42:59.850Z,33.75
2023-02-09T17:45:34.399Z,33.95
2023-02-09T17:48:05.235Z,32.80
2023-02-09T17:50:47.193Z,34.13
2023-02-09T17:53:33.194Z,32.88
2023-02-09T17:56:11.693Z,33.60
2023-02-09T17:58:43.896Z,34.35
2023-02-09T18:01:26.603Z,34.85
2023-02-09T18:04:14.640Z,36.17
2023-02-09T18:06:45.587Z,37.65
2023-02-09T18:09:17.333Z,34.43
2023-02-09T18:11:57.797Z,37.83
2023-02-09T18:14:29.889Z,37.33
2023-02-09T18:17:03.384Z,36.68
2023-02-09T18:19:34.199Z,37.88
2023-02-09T18:22:06.044Z,36.48
2023-02-09T18:24:37.759Z,36.80
2023-02-09T18:27:09.946Z,36.23
2023-02-09T18:29:40.640Z,35.00
2023-02-09T18:32:14.058Z,34.85
2023-02-09T18:34:44.925Z,33.73
2023-02-09T18:37:19.348Z,36.05
2023-02-09T18:39:49.092Z,34.88
2023-02-09T18:42:19.782Z,36.73
2023-02-09T18:44:50.457Z,35.40
2023-02-09T18:47:21.298Z,34.50
2023-02-09T18:49:51.948Z,34.35
2023-02-09T18:52:24.094Z,36.40
2023-02-09T18:54:58.022Z,37.30
2023-02-09T18:57:28.807Z,36.28
2023-02-09T18:59:59.583Z,38.25
2023-02-09T19:02:30.292Z,38.38
2023-02-09T19:05:02.563Z,41.02
2023-02-09T19:07:34.458Z,39.27
2023-02-09T19:10:06.807Z,37.42
2023-02-09T19:12:38.671Z,37.95
2023-02-09T19:15:10.210Z,38.48
2023-02-09T19:17:42.048Z,40.40
2023-02-09T19:20:24.488Z,40.50
2023-02-09T19:22:56.510Z,40.63
2023-02-09T19:25:29.272Z,41.08
2023-02-09T19:28:00.415Z,40.95
2023-02-09T19:30:31.118Z,42.75
2023-02-09T19:33:03.218Z,43.65
2023-02-09T19:35:33.916Z,42.85
2023-02-09T19:38:06.078Z,42.67
2023-02-09T19:40:41.118Z,44.48
2023-02-09T19:43:15.959Z,44.53
2023-02-09T19:45:46.852Z,43.70
2023-02-09T19:48:17.745Z,43.00
2023-02-09T19:50:49.683Z,44.00
2023-02-09T19:53:20.355Z,45.12
2023-02-09T19:55:52.256Z,44.33
2023-02-09T19:58:23.577Z,45.03
2023-02-09T20:00:57.610Z,43.45
2023-02-09T20:03:29.930Z,43.15
2023-02-09T20:06:00.772Z,42.93
2023-02-09T20:08:31.685Z,41.58
2023-02-09T20:11:02.357Z,40.43
2023-02-09T20:13:33.006Z,41.75
2023-02-09T20:16:05.475Z,41.30
2023-02-09T20:18:36.962Z,41.63
2023-02-09T20:21:12.010Z,42.10
2023-02-09T20:23:43.528Z,40.20
2023-02-09T20:26:17.815Z,40.30
2023-02-09T20:28:50.004Z,41.20
2023-02-09T20:31:25.264Z,40.25
2023-02-09T20:33:56.776Z,38.80
2023-02-09T20:36:27.646Z,39.35
2023-02-09T20:38:58.422Z,37.83
2023-02-09T20:41:29.241Z,38.40
2023-02-09T20:44:18.136Z,38.63
2023-02-09T20:46:58.191Z,39.30
2023-02-09T20:49:32.389Z,38.98
2023-02-09T20:52:03.078Z,39.03
2023-02-09T20:54:33.748Z,39.70
2023-02-09T20:57:04.780Z,40.85
2023-02-09T20:59:35.871Z,42.13
2023-02-09T21:02:06.548Z,41.20
2023-02-09T21:04:37.304Z,41.35
2023-02-09T21:07:07.952Z,43.87
2023-02-09T21:09:39.816Z,46.23
2023-02-09T21:12:10.817Z,46.13
2023-02-09T21:14:42.984Z,46.18
2023-02-09T21:17:13.927Z,45.10
2023-02-09T21:19:44.990Z,47.25
2023-02-09T21:22:17.658Z,47.65
2023-02-09T21:24:48.296Z,47.03
2023-02-09T21:27:19.000Z,46.77
2023-02-09T21:29:49.795Z,46.55
2023-02-09T21:32:20.495Z,44.67
2023-02-09T21:34:51.440Z,45.38
2023-02-09T21:37:23.508Z,47.08
2023-02-09T21:39:54.130Z,55.03
2023-02-09T21:42:31.845Z,53.70
2023-02-09T21:45:02.660Z,50.88
2023-02-09T21:47:35.852Z,54.30
2023-02-09T21:50:08.555Z,49.85
2023-02-09T21:52:39.242Z,50.88
2023-02-09T21:55:10.127Z,49.88
2023-02-09T21:57:41.074Z,51.18
2023-02-09T22:00:13.782Z,49.85
2023-02-09T22:02:44.578Z,51.45
2023-02-09T22:05:15.396Z,48.50
2023-02-09T22:07:47.570Z,50.92
2023-02-09T22:10:20.725Z,51.40
2023-02-09T22:12:51.382Z,49.42
2023-02-09T22:15:22.082Z,51.28
2023-02-09T22:17:53.459Z,47.40
2023-02-09T22:20:24.168Z,45.35
2023-02-09T22:22:54.830Z,47.78
2023-02-09T22:25:25.657Z,46.80
2023-02-09T22:27:56.459Z,46.70
2023-02-09T22:30:27.371Z,46.68
2023-02-09T22:32:58.178Z,45.25
2023-02-09T22:35:28.901Z,46.58
2023-02-09T22:37:59.736Z,46.15
2023-02-09T22:40:30.773Z,46.00
2023-02-09T22:43:02.689Z,46.48
2023-02-09T22:45:33.362Z,48.98
2023-02-09T22:48:04.030Z,47.30
2023-02-09T22:50:34.711Z,47.73
2023-02-09T22:53:05.596Z,50.00
2023-02-09T22:55:37.050Z,48.50
2023-02-09T22:58:07.788Z,49.18
2023-02-09T23:00:38.503Z,47.08
2023-02-09T23:03:09.390Z,48.73
2023-02-09T23:05:40.289Z,48.95
2023-02-09T23:08:11.022Z,49.70
2023-02-09T23:10:41.760Z,49.63
2023-02-09T23:13:12.525Z,52.90
2023-02-09T23:15:43.342Z,49.30
2023-02-09T23:18:14.571Z,50.65
2023-02-09T23:20:46.450Z,51.85
2023-02-09T23:23:17.584Z,52.33
2023-02-09T23:25:48.573Z,51.25
2023-02-09T23:28:19.811Z,49.63
2023-02-09T23:30:50.875Z,50.92
2023-02-09T23:33:21.950Z,51.05
2023-02-09T23:35:52.890Z,59.48
2023-02-09T23:38:23.589Z,52.70
2023-02-09T23:40:54.355Z,53.85
2023-02-09T23:43:25.182Z,53.05
2023-02-09T23:45:55.987Z,55.23
2023-02-09T23:48:26.762Z,55.17
2023-02-09T23:51:04.903Z,54.55
2023-02-09T23:53:36.864Z,53.25
2023-02-09T23:56:08.002Z,51.00
2023-02-09T23:58:41.412Z,53.70
